Time;durP1;ratioP1;P1;durP2;ratioP2;P2;SDS_P1;SDS_P2;PMS_P1;PMS_P2;Temp;Humidity;BMP_temperature;BMP_pressure;BME280_temperature;BME280_humidity;BME280_pressure;Samples;Min_cycle;Max_cycle;Signal;HPM_P1;HPM_P2
2022/05/04 00:01:13;;;;;;;36.25;33.38;;;;;;;5.54;100.00;101166.13;4994447;28;20058;-82
2022/05/04 00:03:40;;;;;;;36.88;33.88;;;;;;;5.70;100.00;101163.53;4996842;28;20443;-81
2022/05/04 00:06:21;;;;;;;38.33;35.13;;;;;;;5.84;100.00;101162.03;4996625;28;20380;-83
2022/05/04 00:08:59;;;;;;;39.55;36.22;;;;;;;5.95;100.00;101165.22;4994658;28;20047;-83
2022/05/04 00:11:40;;;;;;;38.28;35.35;;;;;;;6.01;100.00;101160.28;4988320;28;20402;-84
2022/05/04 00:14:14;;;;;;;37.60;34.45;;;;;;;5.86;100.00;101158.25;4994754;28;20054;-81
2022/05/04 00:16:43;;;;;;;38.33;35.33;;;;;;;6.13;100.00;101156.31;4994463;28;20051;-82
2022/05/04 00:19:21;;;;;;;39.40;36.50;;;;;;;6.16;100.00;101146.25;4995261;28;20443;-83
2022/05/04 00:21:54;;;;;;;42.70;39.40;;;;;;;6.47;100.00;101152.63;4994384;28;20054;-81
2022/05/04 00:24:27;;;;;;;42.72;38.65;;;;;;;6.65;100.00;101154.06;4994734;28;20116;-81
2022/05/04 00:26:58;;;;;;;42.55;39.08;;;;;;;6.87;100.00;101152.53;4995227;28;20054;-83
2022/05/04 00:29:25;;;;;;;38.13;35.30;;;;;;;6.80;100.00;101140.19;4994426;28;20046;-83
2022/05/04 00:32:05;;;;;;;39.80;36.90;;;;;;;6.92;100.00;101141.44;4994088;28;20430;-82
2022/05/04 00:34:35;;;;;;;40.67;37.53;;;;;;;7.11;100.00;101148.97;4994482;28;20132;-81
2022/05/04 00:37:08;;;;;;;40.45;37.08;;;;;;;6.85;100.00;101146.59;4994393;28;20058;-82
2022/05/04 00:39:49;;;;;;;;;;;;;;;;;;;;;
2022/05/04 00:42:18;;;;;;;42.20;38.80;;;;;;;7.24;100.00;101142.31;4993864;28;20060;-81
2022/05/04 00:44:49;;;;;;;41.60;38.38;;;;;;;7.33;100.00;101147.38;4997765;28;20105;-82
2022/05/04 00:47:19;;;;;;;44.05;40.40;;;;;;;7.46;100.00;101146.78;4994116;28;20054;-82
2022/05/04 00:49:53;;;;;;;40.53;37.22;;;;;;;7.57;100.00;101150.84;4986829;28;20057;-83
2022/05/04 00:52:22;;;;;;;45.17;41.45;;;;;;;7.33;100.00;101149.19;4990879;28;20049;-82
2022/05/04 00:54:55;;;;;;;44.15;40.97;;;;;;;7.50;100.00;101145.47;4994533;28;20090;-82
2022/05/04 01:00:07;;;;;;;49.07;44.73;;;;;;;7.45;100.00;101152.25;4994691;28;20478;-80
2022/05/04 01:02:38;;;;;;;46.13;42.50;;;;;;;7.21;100.00;101151.41;4993512;28;20063;-82
2022/05/04 01:05:09;;;;;;;45.90;42.70;;;;;;;7.15;100.00;101146.81;4993990;28;20105;-82
2022/05/04 01:07:36;;;;;;;45.65;42.28;;;;;;;7.01;100.00;101152.81;4990266;28;20138;-82
2022/05/04 01:10:08;;;;;;;48.83;45.33;;;;;;;7.21;100.00;101154.03;4994034;28;20125;-81
2022/05/04 01:12:36;;;;;;;38.58;35.47;;;;;;;7.07;100.00;101154.75;4994062;28;20518;-81
2022/05/04 01:15:05;;;;;;;41.10;37.80;;;;;;;6.98;100.00;101146.03;4978962;28;20376;-81
2022/05/04 01:17:36;;;;;;;43.40;40.00;;;;;;;7.09;100.00;101153.59;4993801;28;20526;-82
2022/05/04 01:20:12;;;;;;;39.60;36.70;;;;;;;7.41;100.00;101159.69;4994149;28;20048;-84
2022/05/04 01:22:48;;;;;;;41.53;38.47;;;;;;;7.15;100.00;101144.16;4993969;28;20054;-85
2022/05/04 01:25:17;;;;;;;42.20;39.00;;;;;;;7.56;100.00;101154.47;4993923;28;20109;-81
2022/05/04 01:27:51;;;;;;;44.45;41.00;;;;;;;7.50;100.00;101155.19;4997525;28;20065;-82
2022/05/04 01:30:22;;;;;;;42.88;39.78;;;;;;;7.60;100.00;101153.16;4997200;28;20043;-81
2022/05/04 01:32:50;;;;;;;43.85;40.75;;;;;;;7.47;100.00;101143.13;4978551;28;20058;-81
2022/05/04 01:35:18;;;;;;;44.15;40.95;;;;;;;7.93;100.00;101140.50;4997640;28;20056;-81
2022/05/04 01:37:47;;;;;;;42.00;38.78;;;;;;;7.64;100.00;101146.50;4997311;28;20109;-82
2022/05/04 01:40:14;;;;;;;42.75;39.65;;;;;;;7.96;100.00;101144.63;4997665;28;20054;-81
2022/05/04 01:42:46;;;;;;;41.85;38.85;;;;;;;7.79;100.00;101143.91;4997589;28;20089;-81
2022/05/04 01:45:18;;;;;;;38.83;36.03;;;;;;;7.78;100.00;101145.75;4997992;28;20050;-81
2022/05/04 01:47:57;;;;;;;40.65;37.60;;;;;;;7.61;100.00;101135.47;4997792;28;20046;-83
2022/05/04 01:50:31;;;;;;;44.88;41.65;;;;;;;7.94;100.00;101141.31;4997063;28;20046;-82
2022/05/04 01:53:06;;;;;;;41.53;38.72;;;;;;;7.79;100.00;101133.34;4999777;28;20129;-82
2022/05/04 01:55:43;;;;;;;39.92;37.10;;;;;;;7.94;100.00;101141.31;4997563;28;20050;-83
2022/05/04 01:58:16;;;;;;;36.08;33.88;;;;;;;7.92;100.00;101135.38;4995194;28;20074;-82
2022/05/04 02:00:42;;;;;;;;;;;;;;;8.01;100.00;101129.84;5106394;23;20040;-82
2022/05/04 02:03:09;;;;;;;44.88;41.88;;;;;;;7.90;100.00;101126.81;5034419;28;20288;-81
2022/05/04 02:05:36;;;;;;;43.58;40.17;;;;;;;8.09;100.00;101125.50;5034121;28;20447;-82
2022/05/04 02:08:05;;;;;;;48.30;45.33;;;;;;;7.94;100.00;101128.09;5034671;28;20072;-82
2022/05/04 02:10:32;;;;;;;51.28;47.85;;;;;;;7.85;100.00;101129.97;5034903;28;20053;-82
2022/05/04 02:12:59;;;;;;;48.50;45.25;;;;;;;7.55;100.00;101134.34;5033980;28;20045;-80
2022/05/04 02:15:26;;;;;;;48.35;44.95;;;;;;;7.58;100.00;101134.81;5026359;28;20053;-82
2022/05/04 02:17:52;;;;;;;53.35;49.22;;;;;;;7.85;100.00;101143.22;5035258;28;20053;-82
2022/05/04 02:20:21;;;;;;;50.58;46.97;;;;;;;7.83;100.00;101150.50;5031367;28;20045;-81
2022/05/04 02:22:52;;;;;;;48.38;44.97;;;;;;;8.14;100.00;101144.28;5031637;28;20065;-82
2022/05/04 02:25:20;;;;;;;50.55;46.95;;;;;;;8.29;100.00;101149.59;5036329;28;20049;-81
2022/05/04 02:27:47;;;;;;;41.95;38.65;;;;;;;8.18;100.00;101138.47;5034535;28;20054;-81
2022/05/04 02:30:14;;;;;;;43.92;40.80;;;;;;;8.05;100.00;101143.56;5033760;28;20050;-82
2022/05/04 02:32:41;;;;;;;46.85;43.65;;;;;;;8.23;100.00;101125.53;5028925;28;20461;-82
2022/05/04 02:38:00;;;;;;;43.15;40.22;;;;;;;8.38;100.00;101138.81;4962640;28;20589;-82
2022/05/04 02:40:28;;;;;;;42.85;39.65;;;;;;;8.58;100.00;101139.06;5032123;28;20049;-82
2022/05/04 02:42:55;;;;;;;44.65;41.45;;;;;;;8.37;100.00;101144.22;5032480;28;20061;-83
2022/05/04 02:45:22;;;;;;;37.92;34.92;;;;;;;8.15;100.00;101144.13;5031250;28;20493;-83
2022/05/04 02:47:49;;;;;;;42.22;39.40;;;;;;;8.19;100.00;101150.69;5034620;28;20111;-82
2022/05/04 02:50:16;;;;;;;44.42;40.97;;;;;;;8.06;100.00;101152.31;5034185;28;20049;-81
2022/05/04 02:52:44;;;;;;;43.75;40.90;;;;;;;8.57;100.00;101152.50;5033753;28;20052;-82
2022/05/04 02:55:11;;;;;;;40.80;38.13;;;;;;;8.46;100.00;101151.94;5033762;28;20444;-81
2022/05/04 02:57:39;;;;;;;43.30;40.45;;;;;;;8.58;100.00;101143.56;5031989;28;20469;-82
2022/05/04 03:00:07;;;;;;;40.75;38.05;;;;;;;8.48;100.00;101141.19;5033332;28;20050;-81
2022/05/04 03:02:34;;;;;;;45.22;42.05;;;;;;;8.65;100.00;101142.66;5027729;28;20058;-82
2022/05/04 03:05:03;;;;;;;43.53;40.55;;;;;;;8.56;100.00;101138.44;5029262;28;20064;-83
2022/05/04 03:07:30;;;;;;;40.42;37.63;;;;;;;8.38;100.00;101148.50;5034149;28;20057;-82
2022/05/04 03:09:57;;;;;;;41.58;38.58;;;;;;;8.23;100.00;101146.69;5027376;28;20045;-82
2022/05/04 03:12:25;;;;;;;47.17;42.55;;;;;;;8.30;100.00;101151.25;5026090;28;20135;-82
2022/05/04 03:14:59;;;;;;;53.50;47.90;;;;;;;8.77;100.00;101152.78;5032178;28;20053;-81
2022/05/04 03:17:27;;;;;;;55.72;49.97;;;;;;;8.80;100.00;101153.22;5033511;28;20103;-82
2022/05/04 03:19:54;;;;;;;56.60;50.72;;;;;;;8.32;100.00;101162.47;5035267;28;20061;-82
2022/05/04 03:22:21;;;;;;;53.38;48.10;;;;;;;8.34;100.00;101158.66;5032298;28;20061;-82
2022/05/04 03:24:55;;;;;;;66.05;55.53;;;;;;;8.14;100.00;101158.34;5015732;28;20058;-82
2022/05/04 03:27:24;;;;;;;64.50;54.05;;;;;;;8.32;100.00;101155.38;5015095;28;20050;-81
2022/05/04 03:29:51;;;;;;;59.92;53.35;;;;;;;8.49;100.00;101159.50;5015526;28;20050;-82
2022/05/04 03:32:33;;;;;;;54.95;49.15;;;;;;;8.80;100.00;101150.56;5034637;28;20049;-82
2022/05/04 03:35:01;;;;;;;53.15;48.13;;;;;;;8.87;100.00;101153.34;5034806;28;20493;-82
2022/05/04 03:37:27;;;;;;;50.00;45.47;;;;;;;9.05;100.00;101159.06;5035126;28;20053;-83
2022/05/04 03:39:55;;;;;;;56.42;50.38;;;;;;;8.89;100.00;101167.19;5035053;28;20053;-82
2022/05/04 03:42:47;;;;;;;58.33;52.00;;;;;;;8.95;100.00;101167.28;5034508;28;20111;-83
2022/05/04 03:45:16;;;;;;;54.78;49.58;;;;;;;9.07;100.00;101162.34;5022684;28;20045;-81
2022/05/04 03:47:45;;;;;;;56.22;51.50;;;;;;;9.14;100.00;101165.09;5034312;28;20046;-82
2022/05/04 03:50:12;;;;;;;54.40;49.70;;;;;;;9.20;100.00;101169.66;5033496;28;20127;-82
2022/05/04 03:52:46;;;;;;;53.72;48.42;;;;;;;9.22;100.00;101167.59;5034068;28;20041;-83
2022/05/04 03:55:13;;;;;;;55.03;49.63;;;;;;;9.51;100.00;101171.22;5034766;28;20064;-82
2022/05/04 03:57:50;;;;;;;48.15;43.50;;;;;;;9.30;100.00;101177.28;5030935;28;20054;-82
2022/05/04 04:00:21;;;;;;;53.17;48.08;;;;;;;8.89;100.00;101175.13;5033806;28;20136;-82
2022/05/04 04:02:50;;;;;;;58.03;52.17;;;;;;;9.29;100.00;101172.97;5029104;28;20119;-81
2022/05/04 04:05:24;;;;;;;58.10;52.90;;;;;;;9.54;100.00;101174.31;5022962;28;20053;-82
2022/05/04 04:08:00;;;;;;;56.38;52.22;;;;;;;9.60;100.00;101175.38;5019114;28;20053;-82
2022/05/04 04:10:28;;;;;;;64.13;58.95;;;;;;;9.49;100.00;101178.53;5018560;28;20099;-82
2022/05/04 04:12:55;;;;;;;35.83;33.50;;;;;;;9.60;100.00;101184.16;5034448;28;20076;-81
2022/05/04 04:15:27;;;;;;;34.35;32.28;;;;;;;9.75;100.00;101184.13;5033380;28;20119;-82
2022/05/04 04:17:55;;;;;;;34.70;32.60;;;;;;;9.85;100.00;101174.00;5014774;28;20046;-81
2022/05/04 04:23:07;;;;;;;37.67;35.47;;;;;;;9.95;100.00;101184.28;5033575;28;20044;-82
2022/05/04 04:25:40;;;;;;;35.40;33.28;;;;;;;10.20;100.00;101183.91;5030668;28;20046;-83
2022/05/04 04:28:06;;;;;;;31.90;30.00;;;;;;;10.11;100.00;101193.03;5014498;28;20049;-82
2022/05/04 04:30:40;;;;;;;32.65;30.65;;;;;;;10.24;100.00;101193.13;5018742;28;20107;-82
2022/05/04 04:33:09;;;;;;;32.55;30.63;;;;;;;10.27;100.00;101190.94;5014705;28;20050;-81
2022/05/04 04:35:40;;;;;;;31.75;29.55;;;;;;;10.39;100.00;101185.91;5020694;28;20489;-84
2022/05/04 04:38:09;;;;;;;32.70;30.70;;;;;;;10.41;100.00;101199.84;5032284;28;20099;-81
2022/05/04 04:40:36;;;;;;;36.45;34.15;;;;;;;10.39;100.00;101191.22;5033717;28;20053;-82
2022/05/04 04:43:11;;;;;;;35.80;33.83;;;;;;;10.43;100.00;101196.97;5030182;28;20050;-82
2022/05/04 04:45:38;;;;;;;35.88;33.78;;;;;;;10.44;100.00;101193.28;5027855;28;20057;-83
2022/05/04 04:48:06;;;;;;;36.53;34.28;;;;;;;10.62;100.00;101201.63;5029177;28;20042;-83
2022/05/04 04:50:36;;;;;;;35.10;33.10;;;;;;;10.59;100.00;101203.81;5026565;28;20049;-82
2022/05/04 04:53:03;;;;;;;35.97;33.67;;;;;;;10.68;100.00;101200.00;5033752;28;20041;-82
2022/05/04 04:55:32;;;;;;;34.80;32.53;;;;;;;10.87;100.00;101195.84;5033732;28;20539;-83
2022/05/04 04:58:05;;;;;;;35.47;33.47;;;;;;;10.76;100.00;101199.84;5028235;28;20045;-82
2022/05/04 05:00:32;;;;;;;38.30;36.10;;;;;;;10.76;100.00;101203.31;5032384;28;20060;-83
2022/05/04 05:03:00;;;;;;;35.60;33.50;;;;;;;10.96;100.00;101207.94;5024420;28;20113;-82
2022/05/04 05:05:29;;;;;;;33.30;31.30;;;;;;;10.83;100.00;101210.50;5024017;28;20057;-83
2022/05/04 05:07:57;;;;;;;34.38;32.58;;;;;;;10.87;100.00;101214.44;5018795;28;20108;-82
2022/05/04 05:10:27;;;;;;;35.60;33.60;;;;;;;11.03;100.00;101206.13;5022150;28;20378;-83
2022/05/04 05:12:54;;;;;;;34.20;32.40;;;;;;;11.19;100.00;101197.00;5033479;28;20096;-83
2022/05/04 05:18:07;;;;;;;36.90;34.92;;;;;;;11.41;100.00;101195.88;5037524;28;20522;-84
2022/05/04 05:20:34;;;;;;;34.92;32.97;;;;;;;11.54;100.00;101199.59;5037346;28;20053;-84
2022/05/04 05:23:05;;;;;;;34.30;32.13;;;;;;;11.69;100.00;101195.75;5036438;28;20099;-83
2022/05/04 05:25:32;;;;;;;32.22;30.60;;;;;;;11.89;100.00;101184.31;5033015;28;20492;-81
2022/05/04 05:28:01;;;;;;;32.42;30.73;;;;;;;12.12;100.00;101191.94;5032408;28;20076;-82
2022/05/04 05:30:29;;;;;;;29.58;28.10;;;;;;;12.27;100.00;101191.72;5032000;28;20455;-82
2022/05/04 05:32:59;;;;;;;29.75;28.25;;;;;;;12.05;100.00;101181.28;5016678;28;20082;-82
2022/05/04 05:35:28;;;;;;;28.20;26.90;;;;;;;12.37;100.00;101179.66;5032134;28;20512;-82
2022/05/04 05:38:04;;;;;;;27.77;26.27;;;;;;;12.10;100.00;101180.66;5031705;28;20054;-82
2022/05/04 05:40:35;;;;;;;27.35;26.05;;;;;;;12.26;100.00;101184.78;5027879;28;20050;-82
2022/05/04 05:43:04;;;;;;;25.57;24.40;;;;;;;12.22;100.00;101178.19;5032828;28;20057;-82
2022/05/04 05:45:31;;;;;;;27.48;26.17;;;;;;;12.31;100.00;101185.78;5036212;28;20045;-81
2022/05/04 05:48:07;;;;;;;28.08;26.48;;;;;;;12.65;100.00;101188.41;5036094;28;20457;-81
2022/05/04 05:50:37;;;;;;;27.50;25.88;;;;;;;12.91;100.00;101175.00;5033806;28;20049;-81
2022/05/04 05:53:06;;;;;;;26.58;25.27;;;;;;;12.94;100.00;101174.59;5036110;28;20038;-82
2022/05/04 05:55:39;;;;;;;28.05;26.65;;;;;;;13.36;100.00;101182.25;5036185;28;20052;-82
2022/05/04 05:58:10;;;;;;;26.42;24.95;;;;;;;13.26;100.00;101177.38;5033742;28;20045;-83
2022/05/04 06:00:38;;;;;;;26.63;25.10;;;;;;;13.47;100.00;101181.59;5036380;28;20045;-84
2022/05/04 06:03:06;;;;;;;26.02;24.73;;;;;;;13.59;100.00;101179.06;5036940;28;20049;-83
2022/05/04 06:05:33;;;;;;;27.45;25.85;;;;;;;13.69;100.00;101172.22;5036248;28;20053;-83
2022/05/04 06:08:03;;;;;;;27.63;26.13;;;;;;;13.93;100.00;101183.16;5029182;28;20485;-82
2022/05/04 06:10:33;;;;;;;26.88;25.38;;;;;;;13.73;100.00;101175.25;5029092;28;20107;-83
2022/05/04 06:13:27;;;;;;;26.23;24.92;;;;;;;13.61;100.00;101177.78;5034270;28;20052;-83
2022/05/04 06:15:58;;;;;;;27.15;25.80;;;;;;;13.90;100.00;101184.38;5027712;28;20104;-82
2022/05/04 06:18:31;;;;;;;27.20;25.90;;;;;;;14.26;100.00;101187.41;5035099;28;20132;-81
2022/05/04 06:21:02;;;;;;;27.05;25.75;;;;;;;13.96;100.00;101188.06;5036017;28;20057;-81
2022/05/04 06:23:29;;;;;;;28.75;27.25;;;;;;;14.20;100.00;101191.78;5036395;28;20049;-82
2022/05/04 06:25:57;;;;;;;29.50;28.10;;;;;;;14.57;100.00;101197.22;5036588;28;20048;-80
2022/05/04 06:28:24;;;;;;;28.88;27.38;;;;;;;14.40;100.00;101187.09;5034642;28;20054;-81
2022/05/04 06:36:40;;;;;;;28.35;26.73;;;;;;;15.16;100.00;101181.56;5042994;28;20511;-84
2022/05/04 06:39:10;;;;;;;27.90;26.60;;;;;;;14.79;100.00;101192.25;5038211;28;20544;-82
2022/05/04 06:41:41;;;;;;;27.50;26.30;;;;;;;15.10;100.00;101184.09;5032429;28;20045;-81
2022/05/04 06:44:09;;;;;;;27.88;26.45;;;;;;;15.51;100.00;101189.75;5037395;28;20477;-82
2022/05/04 06:46:41;;;;;;;29.20;27.50;;;;;;;15.11;100.00;101195.63;5038480;28;20073;-80
2022/05/04 06:49:10;;;;;;;28.70;27.27;;;;;;;15.33;100.00;101193.28;5023106;28;20401;-80
2022/05/04 06:51:38;;;;;;;28.58;27.08;;;;;;;15.27;100.00;101195.00;5035774;28;20038;-82
2022/05/04 06:54:06;;;;;;;28.75;26.83;;;;;;;15.01;100.00;101193.47;5037361;28;20063;-81
2022/05/04 06:56:33;;;;;;;28.20;26.38;;;;;;;15.52;100.00;101202.06;5037134;28;20088;-82
2022/05/04 06:59:07;;;;;;;28.60;27.05;;;;;;;15.50;100.00;101186.25;5034527;28;20530;-82
2022/05/04 07:01:34;;;;;;;29.60;28.02;;;;;;;15.30;100.00;101193.72;5033204;28;20106;-81
2022/05/04 07:04:01;;;;;;;28.75;27.38;;;;;;;15.35;100.00;101192.00;5033639;28;20128;-82
2022/05/04 07:06:27;;;;;;;28.67;27.38;;;;;;;15.87;100.00;101194.19;5034314;28;20052;-81
2022/05/04 07:08:54;;;;;;;28.52;27.13;;;;;;;15.57;100.00;101202.22;5036474;28;20063;-82
2022/05/04 07:11:21;;;;;;;29.33;27.83;;;;;;;16.10;100.00;101198.81;5028849;28;20049;-81
2022/05/04 07:13:49;;;;;;;29.25;27.85;;;;;;;15.53;100.00;101195.69;5035857;28;20053;-82
2022/05/04 07:16:17;;;;;;;29.38;27.80;;;;;;;15.48;100.00;101196.38;5031798;28;20054;-82
2022/05/04 07:18:44;;;;;;;32.50;30.90;;;;;;;15.68;100.00;101181.94;5030884;28;20052;-81
2022/05/04 07:21:11;;;;;;;34.38;32.67;;;;;;;16.12;100.00;101188.66;5038002;28;20049;-82
2022/05/04 07:23:38;;;;;;;34.50;32.90;;;;;;;15.65;100.00;101185.84;5037328;28;20050;-81
2022/05/04 07:26:05;;;;;;;36.72;35.13;;;;;;;16.11;100.00;101181.66;5035504;28;20042;-82
2022/05/04 07:28:42;;;;;;;;;;;;;;;;;;;;;
2022/05/04 07:31:11;;;;;;;32.95;31.38;;;;;;;15.73;100.00;101182.03;4996987;28;20425;-82
2022/05/04 07:33:45;;;;;;;32.22;30.73;;;;;;;16.35;100.00;101179.81;5041525;28;20140;-83
2022/05/04 07:36:21;;;;;;;33.78;32.17;;;;;;;16.14;100.00;101188.44;5029945;28;20149;-82
2022/05/04 07:38:50;;;;;;;31.25;29.73;;;;;;;16.41;100.00;101184.25;5037465;28;20053;-82
2022/05/04 07:44:10;;;;;;;30.58;28.98;;;;;;;16.40;100.00;101188.00;5030194;28;20535;-82
2022/05/04 07:46:38;;;;;;;31.33;29.77;;;;;;;16.67;100.00;101193.69;5034457;28;20053;-84
2022/05/04 07:49:09;;;;;;;36.70;34.80;;;;;;;16.38;100.00;101191.94;5035737;28;20461;-84
2022/05/04 07:51:38;;;;;;;37.53;35.50;;;;;;;16.28;100.00;101195.22;5034030;28;20166;-83
2022/05/04 07:54:12;;;;;;;33.70;32.10;;;;;;;16.45;100.00;101196.13;5035604;28;20120;-83
2022/05/04 07:56:40;;;;;;;31.58;30.08;;;;;;;16.45;100.00;101201.50;5030405;28;20048;-84
2022/05/04 07:59:21;;;;;;;;;;;;;;;;;;;;;
2022/05/04 08:04:43;;;;;;;31.83;30.10;;;;;;;16.57;100.00;101203.38;5052947;28;20114;-83
2022/05/04 08:07:12;;;;;;;35.90;33.95;;;;;;;16.06;100.00;101200.28;5054731;28;20397;-82
2022/05/04 08:09:40;;;;;;;36.25;34.30;;;;;;;16.44;100.00;101201.75;5052930;28;20076;-84
2022/05/04 08:12:13;;;;;;;35.13;33.40;;;;;;;17.04;100.00;101204.16;5054111;28;20038;-82
2022/05/04 08:14:41;;;;;;;34.50;32.80;;;;;;;17.38;100.00;101202.41;5054359;28;20051;-83
2022/05/04 08:17:08;;;;;;;35.42;33.70;;;;;;;16.81;100.00;101206.88;5054370;28;20041;-83
2022/05/04 08:19:42;;;;;;;35.90;34.10;;;;;;;16.97;100.00;101208.81;5053974;28;20453;-82
2022/05/04 08:22:14;;;;;;;37.20;35.40;;;;;;;17.42;100.00;101208.13;5053427;28;20538;-82
2022/05/04 08:24:44;;;;;;;37.78;35.88;;;;;;;17.44;100.00;101205.22;5053378;28;20068;-82
2022/05/04 08:27:11;;;;;;;36.58;34.58;;;;;;;17.08;100.00;101207.19;5053097;28;20076;-83
2022/05/04 08:29:39;;;;;;;31.67;30.02;;;;;;;17.25;100.00;101210.75;5056669;28;20048;-82
2022/05/04 08:32:09;;;;;;;31.70;30.00;;;;;;;17.50;100.00;101221.16;5052837;28;20114;-83
2022/05/04 08:34:49;;;;;;;33.25;31.30;;;;;;;17.62;99.97;101205.81;5056320;28;20127;-83
2022/05/04 08:37:28;;;;;;;31.90;30.30;;;;;;;17.07;100.00;101211.75;5055313;28;20139;-84
2022/05/04 08:39:55;;;;;;;33.55;31.85;;;;;;;17.10;100.00;101203.22;5054387;28;20128;-82
2022/05/04 08:42:25;;;;;;;31.40;29.92;;;;;;;17.25;100.00;101201.91;5054815;28;20048;-84
2022/05/04 08:45:02;;;;;;;33.10;31.40;;;;;;;17.70;100.00;101196.56;5055073;28;20557;-82
2022/05/04 08:47:33;;;;;;;31.30;29.67;;;;;;;17.67;99.13;101199.75;5051442;28;20080;-84
2022/05/04 08:50:03;;;;;;;31.65;30.05;;;;;;;17.31;100.00;101201.75;5055627;28;20067;-81
2022/05/04 08:52:52;;;;;;;32.85;30.92;;;;;;;17.71;100.00;101200.06;5055132;28;20057;-82
2022/05/04 08:55:20;;;;;;;30.20;28.60;;;;;;;17.31;100.00;101196.38;5050419;28;20059;-83
2022/05/04 08:57:47;;;;;;;31.30;29.38;;;;;;;17.94;100.00;101197.25;5052536;28;20049;-82
2022/05/04 09:00:15;;;;;;;31.50;29.70;;;;;;;18.19;97.86;101199.56;5055339;28;20045;-85
2022/05/04 09:02:44;;;;;;;31.80;30.30;;;;;;;17.39;100.00;101201.34;5055246;28;20119;-82
2022/05/04 09:05:26;;;;;;;30.77;29.08;;;;;;;18.28;100.00;101195.41;5053253;28;20544;-83
2022/05/04 09:07:57;;;;;;;32.42;30.65;;;;;;;18.77;92.57;101197.47;5052197;28;20037;-83
2022/05/04 09:10:26;;;;;;;32.05;30.55;;;;;;;18.58;93.12;101188.84;5052478;28;20067;-84
2022/05/04 09:12:54;;;;;;;34.95;33.00;;;;;;;18.61;97.40;101191.06;5052892;28;20052;-82
2022/05/04 09:15:25;;;;;;;35.13;33.33;;;;;;;18.01;99.02;101181.00;5052985;28;20053;-83
2022/05/04 09:17:57;;;;;;;33.03;31.33;;;;;;;18.44;100.00;101190.25;5053192;28;20124;-82
2022/05/04 09:23:24;;;;;;;31.85;30.25;;;;;;;18.89;98.18;101186.59;5051452;28;20039;-82
2022/05/04 09:26:06;;;;;;;31.70;30.15;;;;;;;18.87;92.76;101180.66;5053382;28;20047;-82
2022/05/04 09:28:38;;;;;;;43.25;41.05;;;;;;;19.63;91.45;101175.28;5045782;28;20049;-83
2022/05/04 09:31:18;;;;;;;46.30;43.88;;;;;;;18.28;91.88;101173.09;5053209;28;20037;-84
2022/05/04 09:33:53;;;;;;;43.47;41.15;;;;;;;18.33;98.93;101172.34;5053826;28;20060;-83
2022/05/04 09:36:33;;;;;;;42.85;40.65;;;;;;;18.93;98.89;101169.69;5053738;28;20056;-84
2022/05/04 09:45:10;;;;;;;40.58;38.40;;;;;;;19.06;90.55;101157.72;5054812;28;20075;-82
2022/05/04 09:47:41;;;;;;;38.78;36.53;;;;;;;19.91;80.75;101160.75;5056937;28;20493;-83
2022/05/04 09:50:10;;;;;;;38.92;36.92;;;;;;;19.29;83.52;101166.59;5057099;28;20516;-82
2022/05/04 09:52:44;;;;;;;39.78;37.28;;;;;;;21.05;77.82;101163.84;5056986;28;20087;-82
2022/05/04 09:55:19;;;;;;;40.15;38.05;;;;;;;18.79;78.36;101165.75;5055220;28;20106;-83
2022/05/04 09:57:51;;;;;;;39.75;37.58;;;;;;;19.70;89.04;101161.63;5056466;28;20477;-82
2022/05/04 10:00:21;;;;;;;;;;;;;;;18.93;81.25;101156.22;5055842;28;20120;-82
2022/05/04 10:02:50;;;;;;;47.45;44.30;;;;;;;19.44;79.64;101153.28;5055663;28;19932;-83
2022/05/04 10:05:26;;;;;;;45.65;43.35;;;;;;;19.45;80.14;101146.81;5056652;28;20076;-81
2022/05/04 10:07:56;;;;;;;46.20;43.90;;;;;;;19.95;73.93;101142.19;5052854;28;20401;-81
2022/05/04 10:10:25;;;;;;;45.50;43.17;;;;;;;19.95;69.85;101137.59;5049085;28;20049;-83
2022/05/04 10:12:58;;;;;;;45.08;42.85;;;;;;;19.62;79.81;101128.69;5053213;28;20049;-82
2022/05/04 10:15:27;;;;;;;48.55;46.15;;;;;;;19.70;74.46;101140.91;5052890;28;20527;-81
2022/05/04 10:18:04;;;;;;;49.33;46.92;;;;;;;20.17;72.57;101134.78;5049845;28;20132;-83
2022/05/04 10:20:38;;;;;;;50.13;47.72;;;;;;;20.98;66.93;101137.09;5052554;28;20071;-82
2022/05/04 10:23:21;;;;;;;38.10;36.20;;;;;;;20.41;64.79;101135.19;5048969;28;20106;-82
2022/05/04 10:25:50;;;;;;;36.13;34.25;;;;;;;20.01;71.20;101131.19;5057477;28;20053;-83
2022/05/04 10:28:18;;;;;;;34.10;32.40;;;;;;;21.73;68.07;101117.81;5055846;28;20045;-83
2022/05/04 10:30:47;;;;;;;35.40;33.47;;;;;;;21.35;67.18;101124.50;5055859;28;20049;-83
2022/05/04 10:33:19;;;;;;;35.90;33.88;;;;;;;20.80;71.02;101118.69;5056591;28;20055;-83
2022/05/04 10:35:47;;;;;;;34.55;32.65;;;;;;;20.79;64.55;101122.47;5055799;28;20059;-83
2022/05/04 10:38:21;;;;;;;31.80;30.20;;;;;;;20.53;65.61;101122.34;5056183;28;20053;-83
2022/05/04 10:40:55;;;;;;;36.97;33.50;;;;;;;21.07;65.09;101123.91;5054117;28;20044;-83
2022/05/04 10:43:36;;;;;;;32.67;30.98;;;;;;;20.00;63.54;101118.78;5056661;28;20138;-80
2022/05/04 10:46:08;;;;;;;32.35;30.55;;;;;;;19.50;77.93;101111.88;5054785;28;20127;-82
2022/05/04 10:48:36;;;;;;;32.47;30.50;;;;;;;20.38;64.09;101113.34;5050532;28;20496;-82
2022/05/04 10:51:05;;;;;;;32.20;30.38;;;;;;;21.81;56.32;101111.03;5049702;28;20140;-81
2022/05/04 10:53:43;;;;;;;31.65;29.50;;;;;;;22.34;55.93;101116.94;5057463;28;20059;-81
2022/05/04 10:56:14;;;;;;;31.95;29.90;;;;;;;21.40;60.72;101114.56;5055680;28;20063;-81
2022/05/04 10:58:57;;;;;;;33.22;31.33;;;;;;;20.98;64.60;101104.72;5054250;28;20053;-81
2022/05/04 11:01:25;;;;;;;32.92;31.17;;;;;;;22.24;62.12;101103.41;5057305;28;20397;-83
2022/05/04 11:04:04;;;;;;;33.67;31.67;;;;;;;21.73;57.88;101096.19;5056601;28;20465;-82
2022/05/04 11:06:34;;;;;;;33.63;31.60;;;;;;;21.52;57.08;101106.19;5054279;28;20045;-83
2022/05/04 11:09:12;;;;;;;31.80;29.80;;;;;;;22.83;60.35;101108.88;5056283;28;20052;-83
2022/05/04 11:11:40;;;;;;;32.08;30.00;;;;;;;21.65;61.76;101094.81;5057213;28;20044;-82
2022/05/04 11:14:13;;;;;;;34.25;32.38;;;;;;;20.83;64.32;101095.75;5057397;28;20048;-81
2022/05/04 11:16:53;;;;;;;34.22;32.33;;;;;;;21.37;57.25;101092.66;5055477;28;20059;-83
2022/05/04 11:19:25;;;;;;;33.20;31.40;;;;;;;22.00;58.00;101095.06;5040993;28;20045;-84
2022/05/04 11:21:58;;;;;;;33.70;31.88;;;;;;;19.76;69.09;101087.84;5054809;28;20044;-82
2022/05/04 11:24:44;;;;;;;31.75;29.77;;;;;;;21.01;63.93;101079.88;5036288;28;20049;-81
2022/05/04 11:27:23;;;;;;;33.08;31.25;;;;;;;20.18;65.20;101087.84;5056018;28;20421;-83
2022/05/04 11:29:52;;;;;;;35.13;33.03;;;;;;;21.02;64.85;101086.88;5057141;28;20068;-82
2022/05/04 11:32:28;;;;;;;35.55;33.50;;;;;;;21.84;62.04;101084.25;5056691;28;20056;-83
2022/05/04 11:35:14;;;;;;;33.95;32.05;;;;;;;23.01;57.15;101091.22;5049279;28;20802;-82
2022/05/04 11:37:42;;;;;;;35.03;32.47;;;;;;;22.59;54.35;101091.69;5057875;28;20055;-81
2022/05/04 11:40:17;;;;;;;36.25;34.25;;;;;;;23.61;55.84;101091.06;5056689;28;20088;-82
2022/05/04 11:42:46;;;;;;;41.60;39.35;;;;;;;21.76;51.36;101084.84;5051167;28;20052;-82
2022/05/04 11:45:16;;;;;;;37.70;35.70;;;;;;;22.62;58.19;101093.84;5057451;28;20118;-82
2022/05/04 11:47:44;;;;;;;36.72;34.30;;;;;;;23.62;57.57;101076.41;5054978;28;20060;-81
2022/05/04 11:50:12;;;;;;;34.65;32.75;;;;;;;23.00;51.39;101088.81;5057106;28;20044;-83
2022/05/04 11:52:46;;;;;;;35.90;33.90;;;;;;;22.76;50.00;101081.31;5055053;28;20484;-82
2022/05/04 11:55:21;;;;;;;36.10;34.10;;;;;;;23.06;53.49;101074.94;5040083;28;20053;-83
2022/05/04 11:57:56;;;;;;;33.35;31.35;;;;;;;24.06;50.40;101071.97;5043912;28;20378;-82
2022/05/04 12:00:35;;;;;;;35.17;33.28;;;;;;;22.58;57.01;101079.25;5056195;28;20060;-81